Time;durP1;ratioP1;P1;durP2;ratioP2;P2;SDS_P1;SDS_P2;PMS_P1;PMS_P2;Temp;Humidity;BMP_temperature;BMP_pressure;BME280_temperature;BME280_humidity;BME280_pressure;Samples;Min_cycle;Max_cycle;Signal;HPM_P1;HPM_P2
2022/07/18 00:00:23;;;;;;;2.92;1.90;;;;;;;12.77;100.00;100501.60;1720558;83;21060;-70
2022/07/18 00:02:49;;;;;;;2.00;1.55;;;;;;;12.75;100.00;100503.44;1720446;83;21073;-70
2022/07/18 00:05:17;;;;;;;3.67;2.08;;;;;;;12.69;100.00;100506.31;1720410;83;21076;-70
2022/07/18 00:07:45;;;;;;;4.80;2.00;;;;;;;12.66;100.00;100501.63;1720422;82;21112;-70
2022/07/18 00:10:13;;;;;;;4.03;1.82;;;;;;;12.61;100.00;100504.45;1720501;83;21128;-69
2022/07/18 00:12:41;;;;;;;3.10;2.12;;;;;;;12.56;100.00;100505.95;1720342;82;21024;-71
2022/07/18 00:15:09;;;;;;;5.85;2.47;;;;;;;12.54;100.00;100507.80;1720476;83;21108;-70
2022/07/18 00:17:37;;;;;;;3.52;2.00;;;;;;;12.52;100.00;100510.10;1720243;83;21048;-70
2022/07/18 00:20:07;;;;;;;2.72;2.27;;;;;;;12.51;100.00;100516.28;1720378;83;21029;-71
2022/07/18 00:22:34;;;;;;;2.60;1.87;;;;;;;12.49;100.00;100515.48;1720355;83;21561;-70
2022/07/18 00:25:00;;;;;;;3.02;2.02;;;;;;;12.47;100.00;100514.24;1720612;82;21045;-70
2022/07/18 00:27:27;;;;;;;4.12;2.50;;;;;;;12.47;100.00;100511.60;1720593;83;21645;-69
2022/07/18 00:29:55;;;;;;;2.75;1.90;;;;;;;12.49;100.00;100512.84;1720364;82;21057;-69
2022/07/18 00:32:22;;;;;;;3.98;1.95;;;;;;;12.49;100.00;100515.48;1720862;83;21124;-69
2022/07/18 00:34:48;;;;;;;4.83;2.02;;;;;;;12.50;100.00;100515.90;1720446;83;21175;-70
2022/07/18 00:37:15;;;;;;;3.77;2.25;;;;;;;12.48;100.00;100515.09;1720994;83;21120;-71
2022/07/18 00:39:41;;;;;;;4.97;2.10;;;;;;;12.45;100.00;100516.55;1720510;83;21242;-69
2022/07/18 00:42:08;;;;;;;5.58;2.20;;;;;;;12.43;100.00;100515.73;1720526;82;21069;-70
2022/07/18 00:44:36;;;;;;;3.65;2.00;;;;;;;12.41;100.00;100521.53;1720450;83;21141;-70
2022/07/18 00:47:03;;;;;;;2.55;2.10;;;;;;;12.37;100.00;100530.88;1720318;83;21088;-71
2022/07/18 00:49:30;;;;;;;5.45;2.02;;;;;;;12.34;100.00;100524.87;1720355;83;21153;-70
2022/07/18 00:51:58;;;;;;;4.05;2.30;;;;;;;12.31;100.00;100522.36;1720221;82;21794;-69
2022/07/18 00:54:25;;;;;;;3.80;2.00;;;;;;;12.26;100.00;100523.85;1723997;83;21056;-70
2022/07/18 00:56:52;;;;;;;3.33;2.08;;;;;;;12.22;100.00;100523.55;1725718;83;21068;-70
2022/07/18 00:59:19;;;;;;;6.00;2.47;;;;;;;12.21;100.00;100524.45;1725656;82;21585;-70
2022/07/18 01:01:47;;;;;;;3.40;2.12;;;;;;;12.19;100.00;100530.25;1726231;83;21092;-70
2022/07/18 01:04:18;;;;;;;4.83;2.52;;;;;;;12.18;100.00;100534.68;1725649;82;21811;-70
2022/07/18 01:06:46;;;;;;;4.30;2.50;;;;;;;12.18;100.00;100531.19;1725771;82;21120;-69
2022/07/18 01:09:14;;;;;;;7.47;2.77;;;;;;;12.17;100.00;100536.08;1725847;82;21045;-70
2022/07/18 01:11:41;;;;;;;5.70;2.70;;;;;;;12.17;100.00;100536.08;1726100;83;21053;-71
2022/07/18 01:14:08;;;;;;;3.55;2.00;;;;;;;12.17;100.00;100534.75;1725814;82;21053;-69
2022/07/18 01:16:35;;;;;;;3.95;2.30;;;;;;;12.19;100.00;100544.77;1726046;82;21230;-71
2022/07/18 01:19:01;;;;;;;5.75;2.80;;;;;;;12.21;100.00;100541.63;1725684;83;21049;-70
2022/07/18 01:21:28;;;;;;;3.52;2.08;;;;;;;12.22;100.00;100549.96;1725830;83;21027;-70
2022/07/18 01:23:54;;;;;;;4.78;2.30;;;;;;;12.23;100.00;100549.03;1725954;82;21053;-69
2022/07/18 01:26:22;;;;;;;2.62;2.05;;;;;;;12.24;100.00;100550.77;1726103;83;21061;-71
2022/07/18 01:28:48;;;;;;;3.50;2.52;;;;;;;12.26;100.00;100543.66;1725999;82;21193;-70
2022/07/18 01:31:16;;;;;;;3.15;2.05;;;;;;;12.30;100.00;100549.20;1725803;82;20997;-69
2022/07/18 01:33:43;;;;;;;4.15;2.20;;;;;;;12.32;100.00;100546.05;1725770;82;21601;-70
2022/07/18 01:36:09;;;;;;;5.10;2.95;;;;;;;12.37;100.00;100548.05;1725946;82;21518;-70
2022/07/18 01:38:37;;;;;;;3.37;2.35;;;;;;;12.43;100.00;100544.80;1726062;82;21091;-69
2022/07/18 01:41:03;;;;;;;5.25;2.62;;;;;;;12.48;100.00;100552.93;1725969;83;21230;-71
2022/07/18 01:43:30;;;;;;;5.37;2.50;;;;;;;12.53;100.00;100551.44;1725694;82;21542;-70
2022/07/18 01:45:57;;;;;;;4.47;2.10;;;;;;;12.58;100.00;100548.15;1725840;83;21072;-69
2022/07/18 01:48:24;;;;;;;4.72;2.65;;;;;;;12.62;100.00;100549.76;1725670;82;21100;-71
2022/07/18 01:50:51;;;;;;;3.58;2.37;;;;;;;12.66;100.00;100552.69;1725860;83;21041;-69
2022/07/18 01:53:17;;;;;;;3.83;2.72;;;;;;;12.70;100.00;100558.70;1725105;83;21678;-69
2022/07/18 01:55:44;;;;;;;5.08;2.12;;;;;;;12.73;100.00;100552.84;1720603;83;21080;-69
2022/07/18 01:58:11;;;;;;;3.37;2.30;;;;;;;12.78;100.00;100552.20;1720491;83;21108;-70
2022/07/18 02:01:41;;;;;;;2.70;2.20;;;;;;;12.75;100.00;100554.12;1796686;79;22563;-70
2022/07/18 02:04:08;;;;;;;5.17;2.72;;;;;;;12.75;100.00;100548.37;1756433;81;21030;-69
2022/07/18 02:06:34;;;;;;;2.67;2.08;;;;;;;12.73;100.00;100563.42;1756482;81;21218;-70
2022/07/18 02:09:02;;;;;;;3.08;2.05;;;;;;;12.75;100.00;100557.61;1756254;81;21065;-70
2022/07/18 02:11:29;;;;;;;3.05;2.33;;;;;;;12.76;100.00;100560.64;1756243;81;21066;-69
2022/07/18 02:13:56;;;;;;;4.70;2.02;;;;;;;12.78;100.00;100553.98;1756314;81;21111;-70
2022/07/18 02:16:22;;;;;;;5.10;2.70;;;;;;;12.78;100.00;100559.27;1756362;81;21089;-69
2022/07/18 02:18:51;;;;;;;3.12;2.55;;;;;;;12.77;100.00;100559.74;1756336;81;21062;-70
2022/07/18 02:21:18;;;;;;;2.30;2.10;;;;;;;12.82;100.00;100567.48;1722790;83;21001;-69
2022/07/18 02:23:44;;;;;;;8.00;2.92;;;;;;;12.80;100.00;100562.25;1723106;83;21069;-70
2022/07/18 02:26:12;;;;;;;5.67;2.62;;;;;;;12.80;100.00;100568.86;1723001;83;21029;-68
2022/07/18 02:28:39;;;;;;;4.40;2.80;;;;;;;12.78;100.00;100568.05;1722867;83;21108;-69
2022/07/18 02:31:06;;;;;;;7.22;3.22;;;;;;;12.77;100.00;100566.34;1722929;83;21087;-70
2022/07/18 02:33:33;;;;;;;4.42;3.20;;;;;;;12.75;100.00;100565.55;1722978;83;21032;-69
2022/07/18 02:35:59;;;;;;;4.50;2.92;;;;;;;12.72;100.00;100562.14;1722909;83;21103;-70
2022/07/18 02:38:25;;;;;;;7.12;3.12;;;;;;;12.70;100.00;100563.55;1723122;83;21052;-70
2022/07/18 02:40:52;;;;;;;3.20;2.70;;;;;;;12.68;100.00;100573.31;1723068;83;21063;-70
2022/07/18 02:43:19;;;;;;;5.03;3.20;;;;;;;12.65;100.00;100568.13;1722872;83;21128;-70
2022/07/18 02:45:45;;;;;;;3.77;2.22;;;;;;;12.65;100.00;100575.20;1723124;83;21583;-70
2022/07/18 02:48:11;;;;;;;6.53;2.80;;;;;;;12.63;100.00;100573.95;1722779;83;21021;-70
2022/07/18 02:50:39;;;;;;;4.53;2.60;;;;;;;12.66;100.00;100574.30;1722964;83;21108;-71
2022/07/18 02:53:06;;;;;;;3.33;2.25;;;;;;;12.70;100.00;100577.20;1722304;83;21049;-69
2022/07/18 02:55:32;;;;;;;7.80;2.67;;;;;;;12.68;100.00;100576.42;1712454;83;21772;-68
2022/07/18 02:57:59;;;;;;;3.72;2.55;;;;;;;12.67;100.00;100576.86;1691441;84;21051;-70
2022/07/18 03:00:25;;;;;;;3.50;2.70;;;;;;;12.69;100.00;100584.27;1686916;84;21064;-70
2022/07/18 03:02:52;;;;;;;3.75;2.72;;;;;;;12.69;100.00;100581.62;1678913;85;21050;-71
2022/07/18 03:05:18;;;;;;;4.25;2.70;;;;;;;12.65;100.00;100585.30;1678877;85;21097;-71
2022/07/18 03:07:45;;;;;;;3.50;2.55;;;;;;;12.65;100.00;100583.98;1679210;85;21192;-71
2022/07/18 03:10:11;;;;;;;3.67;2.47;;;;;;;12.66;100.00;100585.72;1678813;85;21048;-70
2022/07/18 03:12:42;;;;;;;5.55;2.50;;;;;;;12.67;100.00;100578.18;1678723;85;21077;-70
2022/07/18 03:15:10;;;;;;;3.87;2.72;;;;;;;12.71;100.00;100584.22;1678568;85;21002;-72
2022/07/18 03:17:38;;;;;;;3.27;2.75;;;;;;;12.72;100.00;100585.92;1677307;85;21077;-70
2022/07/18 03:20:06;;;;;;;3.55;2.72;;;;;;;12.74;100.00;100594.20;1678145;85;22251;-70
2022/07/18 03:22:33;;;;;;;3.40;2.30;;;;;;;12.75;100.00;100594.62;1678119;85;21053;-71
2022/07/18 03:25:00;;;;;;;2.83;2.40;;;;;;;12.72;100.00;100593.42;1678289;85;21068;-70
2022/07/18 03:27:26;;;;;;;6.12;2.87;;;;;;;12.77;100.00;100604.67;1678580;85;21064;-70
2022/07/18 03:29:54;;;;;;;4.45;3.05;;;;;;;12.78;100.00;100602.41;1678274;85;22136;-70
2022/07/18 03:32:20;;;;;;;6.42;3.33;;;;;;;12.78;100.00;100603.73;1678394;85;21769;-70
2022/07/18 03:34:48;;;;;;;5.20;2.75;;;;;;;12.82;100.00;100607.60;1678128;85;21069;-70
2022/07/18 03:37:14;;;;;;;6.60;2.65;;;;;;;12.89;100.00;100607.30;1678475;85;21108;-70
2022/07/18 03:39:41;;;;;;;4.30;2.60;;;;;;;12.94;100.00;100608.44;1678560;85;21088;-69
2022/07/18 03:42:07;;;;;;;2.47;2.27;;;;;;;12.99;100.00;100609.97;1678378;85;21097;-70
2022/07/18 03:44:35;;;;;;;5.58;3.20;;;;;;;13.08;100.00;100615.36;1678227;85;21255;-71
2022/07/18 03:47:03;;;;;;;7.33;2.50;;;;;;;13.17;100.00;100611.49;1678298;85;21092;-70
2022/07/18 03:49:31;;;;;;;3.70;2.37;;;;;;;13.25;100.00;100608.09;1678322;85;21032;-71
2022/07/18 03:51:57;;;;;;;3.70;2.65;;;;;;;13.41;100.00;100604.36;1678296;85;21052;-68
2022/07/18 03:54:24;;;;;;;3.25;2.17;;;;;;;13.55;100.00;100609.97;1678122;85;21093;-70
2022/07/18 03:56:50;;;;;;;6.05;2.45;;;;;;;13.69;100.00;100615.12;1678191;85;21107;-69
2022/07/18 03:59:17;;;;;;;4.33;2.83;;;;;;;13.85;100.00;100618.39;1720475;82;21058;-70
2022/07/18 04:01:44;;;;;;;3.60;2.37;;;;;;;14.05;100.00;100614.86;1724418;82;21578;-70
2022/07/18 04:04:12;;;;;;;5.90;2.60;;;;;;;14.20;100.00;100619.11;1725825;82;21584;-70
2022/07/18 04:06:40;;;;;;;3.58;2.05;;;;;;;14.35;100.00;100617.08;1725824;83;21072;-70
2022/07/18 04:09:06;;;;;;;3.92;2.30;;;;;;;14.53;100.00;100609.24;1725867;83;21257;-69
2022/07/18 04:11:33;;;;;;;5.10;2.30;;;;;;;14.79;100.00;100616.90;1725755;82;21124;-69
2022/07/18 04:14:00;;;;;;;6.00;2.98;;;;;;;15.10;100.00;100616.76;1725954;83;21019;-70
2022/07/18 04:16:26;;;;;;;7.25;2.30;;;;;;;15.39;100.00;100621.09;1726279;83;21002;-69
2022/07/18 04:18:53;;;;;;;4.22;2.17;;;;;;;15.57;100.00;100622.84;1725821;82;21081;-70
2022/07/18 04:21:20;;;;;;;3.85;1.90;;;;;;;15.66;100.00;100622.86;1725699;82;21534;-69
2022/07/18 04:23:48;;;;;;;4.80;2.35;;;;;;;15.70;100.00;100625.31;1726007;83;21092;-72
2022/07/18 04:26:15;;;;;;;3.10;2.42;;;;;;;15.67;100.00;100629.43;1726350;82;21057;-69
2022/07/18 04:28:42;;;;;;;4.20;2.40;;;;;;;15.64;100.00;100633.55;1725999;82;21032;-71
2022/07/18 04:31:08;;;;;;;2.65;2.05;;;;;;;15.60;100.00;100621.39;1725951;82;21030;-71
2022/07/18 04:33:35;;;;;;;3.25;1.95;;;;;;;15.55;100.00;100621.20;1725844;83;21531;-70
2022/07/18 04:36:02;;;;;;;4.37;2.15;;;;;;;15.65;100.00;100629.12;1725984;83;21026;-70
2022/07/18 04:38:33;;;;;;;4.75;2.00;;;;;;;15.81;100.00;100628.77;1726054;83;21044;-70
2022/07/18 04:40:58;;;;;;;4.85;2.20;;;;;;;15.99;100.00;100633.61;1725540;82;21029;-68
2022/07/18 04:43:24;;;;;;;3.92;2.27;;;;;;;16.03;100.00;100631.64;1726110;82;21095;-70
2022/07/18 04:45:51;;;;;;;4.90;1.87;;;;;;;16.19;100.00;100624.58;1726023;82;21072;-70
2022/07/18 04:48:18;;;;;;;4.67;2.60;;;;;;;16.44;100.00;100625.47;1725669;83;21037;-70
2022/07/18 04:50:45;;;;;;;4.20;2.10;;;;;;;16.81;100.00;100624.83;1725853;83;21041;-70
2022/07/18 04:53:11;;;;;;;3.47;2.10;;;;;;;17.22;98.76;100626.98;1721403;83;21147;-70
2022/07/18 04:55:38;;;;;;;3.40;2.20;;;;;;;17.58;96.02;100620.50;1657993;86;21053;-70
2022/07/18 04:58:05;;;;;;;3.55;1.87;;;;;;;17.95;93.75;100614.36;1658013;86;21413;-70
2022/07/18 05:00:31;;;;;;;3.30;2.15;;;;;;;18.24;90.69;100617.45;1657074;86;21526;-70
2022/07/18 05:02:58;;;;;;;2.72;1.77;;;;;;;18.50;88.66;100610.98;1678732;85;21031;-70
2022/07/18 05:05:26;;;;;;;4.80;1.92;;;;;;;18.73;87.98;100613.53;1678569;85;21102;-69
2022/07/18 05:07:53;;;;;;;2.55;1.80;;;;;;;18.93;85.64;100616.27;1646200;87;21105;-69
2022/07/18 05:10:23;;;;;;;3.80;1.80;;;;;;;19.08;85.19;100616.63;1645883;87;21630;-70
2022/07/18 05:12:53;;;;;;;11.05;2.08;;;;;;;19.16;85.08;100612.60;1645638;87;21094;-70
2022/07/18 05:15:21;;;;;;;2.45;1.90;;;;;;;19.46;84.14;100613.27;1678791;85;21093;-72
2022/07/18 05:17:48;;;;;;;4.40;2.22;;;;;;;19.78;80.92;100614.27;1645676;87;21066;-70
2022/07/18 05:20:17;;;;;;;2.77;1.95;;;;;;;20.02;80.17;100597.53;1678656;85;21087;-70
2022/07/18 05:22:45;;;;;;;4.30;1.87;;;;;;;20.18;78.82;100603.52;1645827;87;21158;-70
2022/07/18 05:25:12;;;;;;;3.08;1.60;;;;;;;20.44;77.73;100607.52;1678669;85;21051;-70
2022/07/18 05:27:40;;;;;;;2.95;1.55;;;;;;;20.64;77.02;100608.34;1645813;87;21104;-69
2022/07/18 05:30:10;;;;;;;2.52;1.40;;;;;;;20.82;76.40;100602.60;1678895;85;21136;-69
2022/07/18 05:32:38;;;;;;;2.65;1.85;;;;;;;21.03;76.40;100602.40;1679248;85;21008;-69
2022/07/18 05:35:06;;;;;;;4.22;1.72;;;;;;;21.40;75.11;100613.09;1646014;87;21150;-70
2022/07/18 05:37:35;;;;;;;3.15;1.60;;;;;;;21.71;69.54;100621.49;1649330;87;21010;-70
2022/07/18 05:40:04;;;;;;;2.25;1.47;;;;;;;21.95;67.60;100618.78;1645923;87;21130;-71
2022/07/18 05:42:31;;;;;;;3.37;1.65;;;;;;;22.11;64.15;100614.40;1646080;87;21057;-69
2022/07/18 05:44:59;;;;;;;2.25;1.50;;;;;;;22.22;64.07;100611.77;1645889;87;21676;-70
2022/07/18 05:47:25;;;;;;;2.27;1.42;;;;;;;22.37;63.92;100609.23;1645660;87;21300;-71
2022/07/18 05:49:52;;;;;;;1.52;1.20;;;;;;;22.54;63.98;100604.35;1678565;85;21625;-69
2022/07/18 05:52:19;;;;;;;2.30;1.50;;;;;;;22.74;63.24;100607.64;1645735;87;21579;-70
2022/07/18 05:54:46;;;;;;;3.25;1.37;;;;;;;22.86;61.31;100615.69;1645379;87;21109;-71
2022/07/18 05:57:13;;;;;;;2.85;1.75;;;;;;;22.89;61.63;100608.25;1678592;85;21133;-69
2022/07/18 05:59:40;;;;;;;4.30;1.50;;;;;;;22.98;60.42;100607.50;1678293;85;21125;-70
2022/07/18 06:02:06;;;;;;;2.12;1.60;;;;;;;23.06;59.52;100604.20;1649671;86;21129;-69
2022/07/18 06:04:33;;;;;;;3.17;1.60;;;;;;;23.08;60.61;100604.09;1652778;86;21089;-69
2022/07/18 06:07:00;;;;;;;3.83;1.90;;;;;;;23.30;59.30;100599.97;1686315;85;21080;-71
2022/07/18 06:09:30;;;;;;;2.95;1.57;;;;;;;23.51;59.15;100599.16;1652954;86;21149;-71
2022/07/18 06:11:55;;;;;;;3.83;1.50;;;;;;;23.72;59.24;100601.41;1653012;86;21106;-69
2022/07/18 06:14:21;;;;;;;3.25;1.42;;;;;;;24.02;56.94;100601.14;1686023;85;21065;-70
2022/07/18 06:16:48;;;;;;;5.08;2.00;;;;;;;24.22;55.75;100588.63;1653166;86;21030;-70
2022/07/18 06:19:14;;;;;;;2.70;1.50;;;;;;;24.34;54.90;100592.96;1686212;85;21246;-70
2022/07/18 06:21:40;;;;;;;3.22;1.60;;;;;;;24.53;53.34;100598.95;1653157;86;21089;-71
2022/07/18 06:24:08;;;;;;;3.33;1.70;;;;;;;24.61;53.24;100595.56;1652944;86;21270;-71
2022/07/18 06:26:35;;;;;;;4.35;1.77;;;;;;;24.71;52.70;100591.08;1686122;85;21120;-70
2022/07/18 06:29:02;;;;;;;1.75;1.20;;;;;;;24.81;52.59;100600.03;1652983;86;21065;-70
2022/07/18 06:31:30;;;;;;;4.80;1.75;;;;;;;24.98;52.45;100597.66;1653233;86;21042;-71
2022/07/18 06:33:57;;;;;;;1.67;1.22;;;;;;;25.15;51.12;100596.99;1686421;85;21116;-70
2022/07/18 06:36:23;;;;;;;2.80;1.60;;;;;;;25.29;50.52;100584.98;1653025;86;21877;-70
2022/07/18 06:38:51;;;;;;;4.53;1.50;;;;;;;25.32;51.19;100593.63;1686044;85;21026;-69
2022/07/18 06:41:19;;;;;;;5.15;1.80;;;;;;;25.56;50.42;100585.63;1653040;86;21069;-71
2022/07/18 06:43:45;;;;;;;4.53;1.60;;;;;;;25.70;49.71;100585.19;1686465;84;21080;-71
2022/07/18 06:46:12;;;;;;;4.37;1.30;;;;;;;25.77;49.16;100591.33;1686311;85;21128;-71
2022/07/18 06:48:39;;;;;;;3.77;1.72;;;;;;;25.85;49.24;100587.42;1686652;85;21245;-71
2022/07/18 06:51:06;;;;;;;5.28;1.77;;;;;;;26.02;48.72;100585.38;1686486;85;21057;-72
2022/07/18 06:53:34;;;;;;;2.45;1.40;;;;;;;26.25;48.27;100580.95;1662965;85;21092;-71
2022/07/18 06:56:05;;;;;;;3.77;1.50;;;;;;;26.13;47.26;100573.03;1721044;83;21009;-71
2022/07/18 06:58:33;;;;;;;5.55;1.47;;;;;;;26.13;45.34;100581.12;1719778;83;21073;-70
2022/07/18 07:01:02;;;;;;;5.37;2.12;;;;;;;26.18;46.06;100579.84;1720829;83;21336;-71
2022/07/18 07:03:29;;;;;;;1.52;1.10;;;;;;;26.29;45.98;100582.38;1721187;83;21093;-71
2022/07/18 07:05:55;;;;;;;4.85;1.52;;;;;;;26.42;43.85;100579.35;1721181;82;21120;-71
2022/07/18 07:08:22;;;;;;;3.52;1.50;;;;;;;26.33;44.31;100582.44;1720759;83;21034;-72
2022/07/18 07:10:48;;;;;;;5.28;1.27;;;;;;;26.40;43.41;100584.89;1720890;83;21077;-71
2022/07/18 07:13:15;;;;;;;2.70;1.50;;;;;;;26.53;42.95;100585.91;1720593;83;21584;-72
2022/07/18 07:15:42;;;;;;;4.28;1.98;;;;;;;26.31;42.89;100587.13;1720505;83;21538;-71
2022/07/18 07:18:10;;;;;;;2.47;1.40;;;;;;;26.21;43.29;100591.22;1720642;83;21061;-70
2022/07/18 07:20:37;;;;;;;1.57;1.42;;;;;;;26.06;43.77;100588.11;1720472;83;21050;-72
2022/07/18 07:23:07;;;;;;;2.67;1.40;;;;;;;25.82;43.53;100577.78;1720868;83;21608;-71
2022/07/18 07:25:34;;;;;;;3.97;1.57;;;;;;;25.82;44.06;100587.73;1720942;83;21158;-71
2022/07/18 07:28:01;;;;;;;2.80;1.70;;;;;;;26.00;43.40;100584.67;1720818;83;21112;-72
2022/07/18 07:30:28;;;;;;;8.58;1.70;;;;;;;26.05;43.16;100586.42;1720649;83;21061;-71
2022/07/18 07:32:55;;;;;;;2.40;1.25;;;;;;;26.10;43.56;100577.38;1720872;83;21053;-73
2022/07/18 07:35:22;;;;;;;2.58;1.40;;;;;;;26.19;42.51;100580.22;1720653;83;21033;-72
2022/07/18 07:37:57;;;;;;;2.37;1.37;;;;;;;26.34;42.67;100586.82;1720691;83;21588;-71
2022/07/18 07:40:26;;;;;;;2.37;1.27;;;;;;;26.36;42.71;100584.83;1720527;83;21538;-71
2022/07/18 07:42:52;;;;;;;2.25;1.30;;;;;;;26.70;42.91;100581.59;1720883;83;21144;-71
2022/07/18 07:45:19;;;;;;;2.55;1.30;;;;;;;27.05;41.61;100589.41;1720585;83;21070;-70
2022/07/18 07:47:48;;;;;;;5.42;1.52;;;;;;;27.16;41.25;100582.44;1720719;83;21041;-70
2022/07/18 07:50:14;;;;;;;1.62;1.12;;;;;;;27.35;41.15;100590.42;1720914;82;21587;-72
2022/07/18 07:52:41;;;;;;;2.77;1.15;;;;;;;27.49;40.41;100586.83;1720760;83;21577;-70
2022/07/18 07:55:09;;;;;;;3.58;1.20;;;;;;;27.60;39.62;100585.23;1688298;83;21472;-70
2022/07/18 07:57:36;;;;;;;4.37;1.55;;;;;;;27.75;39.14;100582.33;1653202;86;21038;-72
2022/07/18 08:00:07;;;;;;;3.55;1.10;;;;;;;27.89;39.42;100588.22;1686619;84;21080;-71
2022/07/18 08:02:36;;;;;;;1.75;1.15;;;;;;;27.81;38.11;100584.41;1688454;84;21120;-70
2022/07/18 08:05:04;;;;;;;5.08;1.25;;;;;;;27.72;38.49;100594.83;1691767;84;22144;-71
2022/07/18 08:07:30;;;;;;;3.15;1.27;;;;;;;27.59;37.89;100591.67;1658207;86;21077;-71
2022/07/18 08:09:57;;;;;;;2.80;1.10;;;;;;;27.40;38.84;100586.77;1658095;86;21612;-71
2022/07/18 08:12:25;;;;;;;2.87;0.98;;;;;;;27.55;38.92;100584.86;1658160;86;21120;-71
2022/07/18 08:14:53;;;;;;;3.00;0.90;;;;;;;27.58;36.55;100596.23;1655392;86;21081;-71
2022/07/18 08:17:21;;;;;;;6.20;1.20;;;;;;;27.46;37.84;100589.86;1658047;86;21069;-72
2022/07/18 08:19:50;;;;;;;3.83;1.07;;;;;;;27.54;37.36;100588.59;1657982;86;21057;-71
2022/07/18 08:22:17;;;;;;;1.95;0.88;;;;;;;27.65;36.82;100591.02;1657840;86;21113;-72
2022/07/18 08:24:44;;;;;;;6.62;1.00;;;;;;;27.87;36.93;100590.23;1657918;86;21060;-71
2022/07/18 08:27:11;;;;;;;1.52;0.88;;;;;;;28.13;35.51;100584.30;1658043;86;21139;-70
2022/07/18 08:29:37;;;;;;;4.65;1.00;;;;;;;28.28;35.99;100582.38;1657720;86;21626;-71
2022/07/18 08:32:04;;;;;;;2.45;1.02;;;;;;;28.29;36.57;100582.70;1658138;86;21149;-71
2022/07/18 08:34:31;;;;;;;2.45;0.90;;;;;;;28.35;36.66;100583.42;1658053;86;21143;-73
2022/07/18 08:36:57;;;;;;;3.27;0.90;;;;;;;28.31;36.42;100580.69;1658051;86;21308;-71
2022/07/18 08:39:24;;;;;;;2.98;0.93;;;;;;;28.24;35.83;100592.16;1658234;86;21163;-71
2022/07/18 08:41:51;;;;;;;5.17;1.42;;;;;;;28.29;35.89;100586.77;1657942;86;21596;-71
2022/07/18 08:44:18;;;;;;;2.17;0.93;;;;;;;28.47;35.78;100586.73;1658207;86;21054;-71
2022/07/18 08:46:51;;;;;;;1.30;0.72;;;;;;;28.33;35.00;100588.15;1657963;86;21049;-70
2022/07/18 08:49:18;;;;;;;2.25;0.85;;;;;;;28.15;35.15;100584.98;1657946;86;21117;-70
2022/07/18 08:51:44;;;;;;;1.15;0.60;;;;;;;28.13;35.86;100593.77;1657984;86;21493;-70
2022/07/18 08:54:12;;;;;;;3.37;1.17;;;;;;;28.14;35.89;100591.42;1675938;84;21057;-71
2022/07/18 08:56:39;;;;;;;10.08;1.80;;;;;;;27.94;36.65;100595.34;1673704;85;21109;-71
2022/07/18 08:59:06;;;;;;;4.70;1.40;;;;;;;27.97;36.55;100597.73;1673589;85;21069;-72
2022/07/18 09:01:33;;;;;;;2.45;0.75;;;;;;;28.08;35.66;100581.23;1673745;85;21081;-73
2022/07/18 09:04:16;;;;;;;1.50;0.53;;;;;;;28.18;35.54;100577.92;1670971;85;21251;-72
2022/07/18 09:06:46;;;;;;;4.37;1.20;;;;;;;28.35;34.88;100588.84;1720789;83;21077;-72
2022/07/18 09:09:14;;;;;;;1.55;0.93;;;;;;;28.47;34.63;100580.80;1721094;82;21061;-71
2022/07/18 09:11:58;;;;;;;2.15;0.80;;;;;;;28.79;34.62;100577.88;1720566;83;21030;-71
2022/07/18 09:14:38;;;;;;;3.50;0.80;;;;;;;29.19;33.87;100576.30;1703103;83;21053;-71
2022/07/18 09:17:18;;;;;;;1.87;0.72;;;;;;;29.51;33.66;100584.14;1720839;83;21118;-71
2022/07/18 09:20:10;;;;;;;3.00;0.70;;;;;;;29.67;32.23;100578.70;1720891;83;21017;-73
2022/07/18 09:22:38;;;;;;;0.88;0.55;;;;;;;29.72;31.77;100575.52;1670648;85;21560;-72
2022/07/18 09:25:19;;;;;;;2.33;0.70;;;;;;;29.94;31.27;100565.83;1670578;85;21156;-72
2022/07/18 09:27:52;;;;;;;4.45;0.80;;;;;;;29.94;31.27;100565.83;1694653;83;26546;-73
2022/07/18 09:30:28;;;;;;;1.92;0.70;;;;;;;29.86;31.36;100577.05;1720800;83;21731;-70
2022/07/18 09:33:07;;;;;;;1.40;0.70;;;;;;;29.40;32.15;100579.41;1720730;82;21002;-71
2022/07/18 09:35:39;;;;;;;1.00;0.60;;;;;;;28.59;33.06;100576.78;1720471;82;21046;-73
2022/07/18 09:38:13;;;;;;;2.87;0.80;;;;;;;28.59;33.06;100576.78;1720441;83;22255;-71
2022/07/18 09:40:50;;;;;;;0.88;0.57;;;;;;;28.57;33.43;100567.12;1720396;82;21084;-70
2022/07/18 09:43:22;;;;;;;4.28;0.70;;;;;;;28.39;33.40;100576.65;1720484;83;21959;-71
2022/07/18 09:45:54;;;;;;;0.98;0.60;;;;;;;28.10;33.66;100583.27;1720789;82;21046;-72
2022/07/18 09:48:25;;;;;;;0.93;0.42;;;;;;;27.96;33.32;100579.80;1720600;83;21093;-74
2022/07/18 09:51:01;;;;;;;1.47;0.68;;;;;;;28.00;33.17;100573.07;1720402;83;21066;-73
2022/07/18 09:53:39;;;;;;;1.98;0.50;;;;;;;28.23;33.37;100575.58;1712345;83;21136;-71
2022/07/18 09:56:25;;;;;;;1.37;0.50;;;;;;;28.58;31.69;100566.97;1652906;86;21156;-71
2022/07/18 09:58:55;;;;;;;4.67;0.80;;;;;;;28.93;31.12;100564.20;1652918;86;21030;-71
2022/07/18 10:01:23;;;;;;;0.50;0.40;;;;;;;29.29;31.37;100563.45;1686870;84;21128;-72
2022/07/18 10:03:50;;;;;;;3.33;0.53;;;;;;;29.35;30.76;100569.54;1647723;86;21106;-72
2022/07/18 10:06:18;;;;;;;0.80;0.50;;;;;;;29.18;30.75;100573.27;1678527;85;21565;-73
2022/07/18 10:08:45;;;;;;;1.65;0.40;;;;;;;29.15;31.25;100574.45;1678612;85;21148;-72
2022/07/18 10:11:15;;;;;;;1.20;0.65;;;;;;;28.97;30.61;100571.83;1645392;87;21058;-72
2022/07/18 10:13:41;;;;;;;0.80;0.40;;;;;;;28.99;31.60;100564.39;1645678;87;21110;-71
2022/07/18 10:16:09;;;;;;;3.95;0.55;;;;;;;28.89;32.07;100571.80;1678592;85;21034;-73
2022/07/18 10:18:38;;;;;;;1.50;0.70;;;;;;;28.79;31.89;100565.69;1678831;85;21618;-73
2022/07/18 10:21:09;;;;;;;1.00;0.40;;;;;;;28.69;31.21;100569.89;1645800;87;21224;-71
2022/07/18 10:23:46;;;;;;;1.87;0.50;;;;;;;28.82;31.06;100561.28;1679252;85;21121;-72
2022/07/18 10:26:21;;;;;;;1.82;0.57;;;;;;;28.94;31.08;100557.27;1678690;85;21070;-72
2022/07/18 10:29:05;;;;;;;2.80;0.55;;;;;;;29.22;30.56;100567.86;1646138;87;21594;-71
2022/07/18 10:31:38;;;;;;;4.70;0.80;;;;;;;29.02;30.31;100557.78;1678954;85;21042;-70
2022/07/18 10:34:11;;;;;;;1.95;0.62;;;;;;;28.81;31.17;100554.17;1643024;87;21223;-71
2022/07/18 10:36:54;;;;;;;2.15;0.40;;;;;;;28.74;31.69;100554.50;1678637;85;21581;-70
2022/07/18 10:39:35;;;;;;;1.85;0.55;;;;;;;28.86;29.34;100550.45;1678844;85;21061;-71
2022/07/18 10:42:10;;;;;;;0.68;0.40;;;;;;;29.12;28.07;100556.30;1645858;87;21113;-73
2022/07/18 10:44:41;;;;;;;0.28;0.23;;;;;;;29.22;28.26;100550.22;1678573;85;21149;-70
2022/07/18 10:47:17;;;;;;;0.45;0.40;;;;;;;29.43;27.96;100545.14;1645762;87;21920;-71
2022/07/18 10:49:57;;;;;;;0.90;0.60;;;;;;;29.40;28.52;100535.13;1645724;87;21050;-73
2022/07/18 10:52:33;;;;;;;2.55;0.40;;;;;;;29.32;29.14;100544.12;1678442;85;21092;-72
2022/07/18 10:55:16;;;;;;;1.10;0.60;;;;;;;29.33;29.18;100545.80;1673976;85;21597;-70
2022/07/18 10:57:56;;;;;;;3.02;0.57;;;;;;;29.11;28.41;100546.48;1712684;83;21061;-72
2022/07/18 11:00:27;;;;;;;2.83;0.70;;;;;;;28.92;29.64;100544.38;1712819;83;22165;-72
2022/07/18 11:03:07;;;;;;;1.15;0.55;;;;;;;28.68;29.69;100537.53;1712996;82;21124;-71
2022/07/18 11:05:35;;;;;;;2.40;0.40;;;;;;;28.63;30.03;100537.51;1712849;83;21081;-71
2022/07/18 11:08:09;;;;;;;0.30;0.30;;;;;;;28.78;29.99;100541.80;1712913;82;21559;-71
2022/07/18 11:10:50;;;;;;;4.05;0.50;;;;;;;28.59;29.93;100548.33;1712915;83;21101;-70
2022/07/18 11:13:32;;;;;;;0.37;0.20;;;;;;;28.45;31.10;100548.92;1713085;83;21550;-72
2022/07/18 11:16:19;;;;;;;0.90;0.40;;;;;;;28.51;31.41;100556.44;1702874;83;21045;-72
2022/07/18 11:18:52;;;;;;;0.90;0.50;;;;;;;28.81;30.59;100562.31;1713047;83;21632;-72
2022/07/18 11:21:28;;;;;;;1.32;0.40;;;;;;;28.99;30.83;100551.34;1713131;82;21023;-72
2022/07/18 11:24:08;;;;;;;0.85;0.40;;;;;;;29.09;30.89;100551.22;1713134;83;22050;-71
2022/07/18 11:26:36;;;;;;;;;;;;;;;29.29;29.93;100540.39;1715811;83;21807;-70
2022/07/18 11:29:08;;;;;;;0.60;0.40;;;;;;;29.17;29.90;100535.81;1713076;83;20510;-71